Time,TemperatureF,DewpointF,PressureIn,WindDirection,WindDirectionDegrees,WindSpeedMPH,WindSpeedGustMPH,Humidity,HourlyPrecipIn,Conditions,Clouds,dailyrainin,SoftwareType,DateUTC
2013-03-02 00:00:00,36.3,24.5,29.88,NW,323,5.0,5.0,62,0.00,,---,0.00,VWS V14.01,2013-03-02 05:00:00,
2013-03-02 13:00:00,36.6,21.5,29.85,NNW,338,5.0,12.0,54,0.00,,---,0.00,VWS V14.01,2013-03-02 18:00:00,
2013-03-02 13:29:00,36.6,21.5,29.85,NNW,338,5.0,12.0,54,0.00,,---,0.00,VWS V14.01,2013-03-02 18:29:00,
2013-03-02 13:34:00,36.6,21.5,29.84,NNW,348,7.0,12.0,54,0.00,,---,0.00,VWS V14.01,2013-03-02 18:34:00,
2013-03-02 13:39:00,36.6,22.0,29.84,NNW,330,5.0,10.0,55,0.00,,---,0.00,VWS V14.01,2013-03-02 18:39:00,
2013-03-02 13:44:00,36.8,21.7,29.84,NW,314,2.0,8.0,54,0.00,,---,0.00,VWS V14.01,2013-03-02 18:44:00,
2013-03-02 13:49:00,37.1,22.9,29.84,NW,318,7.0,7.0,56,0.00,,---,0.00,VWS V14.01,2013-03-02 18:49:00,
2013-03-02 13:54:00,36.9,21.8,29.84,SSW,206,4.0,13.0,54,0.00,,---,0.00,VWS V14.01,2013-03-02 18:54:00,
2013-03-02 13:59:00,37.1,22.4,29.84,NW,309,2.0,6.0,55,0.00,,---,0.00,VWS V14.01,2013-03-02 18:59:00,
2013-03-02 14:04:00,37.1,21.6,29.84,NW,311,6.0,10.0,53,0.00,,---,0.00,VWS V14.01,2013-03-02 19:04:00,
2013-03-02 14:09:00,37.1,21.6,29.84,North,5,7.0,11.0,53,0.00,,---,0.00,VWS V14.01,2013-03-02 19:09:00,
2013-03-02 14:14:00,37.1,21.1,29.84,NW,317,7.0,13.0,52,0.00,,---,0.00,VWS V14.01,2013-03-02 19:14:00,
2013-03-02 14:19:00,36.7,21.2,29.84,North,349,7.0,10.0,53,0.00,,---,0.00,VWS V14.01,2013-03-02 19:19:00,
2013-03-02 14:24:00,36.8,22.2,29.84,NNW,336,4.0,9.0,55,0.00,,---,0.00,VWS V14.01,2013-03-02 19:24:00,
2013-03-02 14:29:00,36.7,21.2,29.84,North,349,10.0,12.0,53,0.00,,---,0.00,VWS V14.01,2013-03-02 19:29:00,
2013-03-02 14:33:00,36.3,21.3,29.84,NW,304,4.0,11.0,54,0.00,,---,0.00,VWS V14.01,2013-03-02 19:33:00,
2013-03-02 14:38:00,36.6,21.1,29.84,NNW,348,10.0,12.0,53,0.00,,---,0.00,VWS V14.01,2013-03-02 19:38:00,
2013-03-02 14:43:00,36.5,21.5,29.84,NW,315,4.0,10.0,54,0.00,,---,0.00,VWS V14.01,2013-03-02 19:43:00,
2013-03-02 14:48:00,36.5,21.0,29.84,NNW,331,5.0,10.0,53,0.00,,---,0.00,VWS V14.01,2013-03-02 19:48:00,
2013-03-02 14:53:00,36.3,21.7,29.84,NNW,329,4.0,8.0,55,0.00,,---,0.00,VWS V14.01,2013-03-02 19:53:00,
2013-03-02 14:58:00,36.0,20.5,29.84,NNW,348,9.0,14.0,53,0.00,,---,0.00,VWS V14.01,2013-03-02 19:58:00,
2013-03-02 15:03:00,35.6,20.6,29.84,NNE,13,8.0,12.0,54,0.00,,---,0.00,VWS V14.01,2013-03-02 20:03:00,
2013-03-02 15:09:00,35.7,21.1,29.84,NW,304,6.0,9.0,55,0.00,,---,0.00,VWS V14.01,2013-03-02 20:09:00,
2013-03-02 15:14:00,35.9,20.9,29.84,NW,313,5.0,13.0,54,0.00,,---,0.00,VWS V14.01,2013-03-02 20:14:00,
2013-03-02 15:19:00,35.9,20.9,29.84,NW,325,1.0,9.0,54,0.00,,---,0.00,VWS V14.01,2013-03-02 20:19:00,
2013-03-02 15:23:00,36.1,21.5,29.84,North,355,8.0,12.0,55,0.00,,---,0.00,VWS V14.01,2013-03-02 20:23:00,
2013-03-02 15:28:00,36.1,21.1,29.84,WNW,293,4.0,10.0,54,0.00,,---,0.00,VWS V14.01,2013-03-02 20:28:00,
2013-03-02 15:33:00,36.2,21.2,29.84,NW,306,5.0,5.0,54,0.00,,---,0.00,VWS V14.01,2013-03-02 20:33:00,
2013-03-02 15:38:00,36.1,21.5,29.84,NNW,337,3.0,9.0,55,0.00,,---,0.00,VWS V14.01,2013-03-02 20:38:00,
2013-03-02 15:43:00,35.8,20.8,29.84,NNW,344,1.0,9.0,54,0.00,,---,0.00,VWS V14.01,2013-03-02 20:43:00,
2013-03-02 15:48:00,35.7,21.1,29.84,WNW,301,6.0,10.0,55,0.00,,---,0.00,VWS V14.01,2013-03-02 20:48:00,
2013-03-02 15:53:00,35.4,20.4,29.84,NNW,344,4.0,10.0,54,0.00,,---,0.00,VWS V14.01,2013-03-02 20:53:00,
2013-03-02 15:58:00,35.2,20.7,29.85,NW,315,4.0,7.0,55,0.00,,---,0.00,VWS V14.01,2013-03-02 20:58:00,
2013-03-02 16:03:00,35.1,20.6,29.84,NNW,343,10.0,11.0,55,0.00,,---,0.00,VWS V14.01,2013-03-02 21:03:00,
2013-03-02 16:08:00,34.8,20.3,29.85,NNW,327,4.0,13.0,55,0.00,,---,0.00,VWS V14.01,2013-03-02 21:08:00,
2013-03-02 16:13:00,34.8,20.7,29.85,North,355,6.0,7.0,56,0.00,,---,0.00,VWS V14.01,2013-03-02 21:13:00,
2013-03-02 16:18:00,34.8,20.7,29.85,WNW,290,7.0,9.0,56,0.00,,---,0.00,VWS V14.01,2013-03-02 21:18:00,
2013-03-02 16:23:00,34.8,20.7,29.85,WNW,296,4.0,8.0,56,0.00,,---,0.00,VWS V14.01,2013-03-02 21:23:00,
2013-03-02 16:28:00,34.8,20.3,29.85,North,360,6.0,10.0,55,0.00,,---,0.00,VWS V14.01,2013-03-02 21:28:00,
2013-03-02 16:33:00,34.7,20.6,29.85,NNW,327,6.0,15.0,56,0.00,,---,0.00,VWS V14.01,2013-03-02 21:33:00,
2013-03-02 16:38:00,34.5,20.4,29.85,NNW,336,4.0,10.0,56,0.00,,---,0.00,VWS V14.01,2013-03-02 21:38:00,
2013-03-02 16:43:00,34.4,20.3,29.85,NW,321,2.0,10.0,56,0.00,,---,0.00,VWS V14.01,2013-03-02 21:43:00,
2013-03-02 16:48:00,34.4,20.3,29.85,NNW,329,7.0,10.0,56,0.00,,---,0.00,VWS V14.01,2013-03-02 21:48:00,
2013-03-02 16:53:00,34.3,20.2,29.85,NW,323,6.0,9.0,56,0.00,,---,0.00,VWS V14.01,2013-03-02 21:53:00,
2013-03-02 16:58:00,34.2,20.6,29.85,NW,319,5.0,10.0,57,0.00,,---,0.00,VWS V14.01,2013-03-02 21:58:00,
2013-03-02 17:03:00,34.2,20.1,29.85,NNW,331,3.0,9.0,56,0.00,,---,0.00,VWS V14.01,2013-03-02 22:03:00,
2013-03-02 17:08:00,34.2,20.6,29.86,WNW,300,5.0,7.0,57,0.00,,---,0.00,VWS V14.01,2013-03-02 22:08:00,
2013-03-02 17:13:00,34.1,20.5,29.86,NNW,327,8.0,10.0,57,0.00,,---,0.00,VWS V14.01,2013-03-02 22:13:00,
2013-03-02 17:18:00,33.9,19.9,29.86,North,349,6.0,9.0,56,0.00,,---,0.00,VWS V14.01,2013-03-02 22:18:00,
2013-03-02 17:23:00,33.7,20.1,29.86,NW,321,4.0,10.0,57,0.00,,---,0.00,VWS V14.01,2013-03-02 22:23:00,
2013-03-02 17:28:00,33.7,19.7,29.86,NNE,14,3.0,12.0,56,0.00,,---,0.00,VWS V14.01,2013-03-02 22:28:00,
2013-03-02 17:33:00,33.5,19.5,29.87,NNW,336,4.0,7.0,56,0.00,,---,0.00,VWS V14.01,2013-03-02 22:33:00,
2013-03-02 17:38:00,33.5,19.9,29.87,WNW,294,6.0,6.0,57,0.00,,---,0.00,VWS V14.01,2013-03-02 22:38:00,
2013-03-02 17:43:00,33.5,19.9,29.87,NNW,334,3.0,6.0,57,0.00,,---,0.00,VWS V14.01,2013-03-02 22:43:00,
2013-03-02 17:48:00,33.4,19.8,29.87,NW,325,4.0,10.0,57,0.00,,---,0.00,VWS V14.01,2013-03-02 22:48:00,
2013-03-02 17:53:00,33.3,19.3,29.87,North,355,7.0,11.0,56,0.00,,---,0.00,VWS V14.01,2013-03-02 22:53:00,
2013-03-02 17:58:00,33.1,19.5,29.87,NW,324,7.0,14.0,57,0.00,,---,0.00,VWS V14.01,2013-03-02 22:58:00,
2013-03-02 18:03:00,33.0,19.4,29.88,NW,326,8.0,11.0,57,0.00,,---,0.00,VWS V14.01,2013-03-02 23:03:00,
2013-03-02 18:08:00,32.8,19.3,29.87,NW,325,5.0,12.0,57,0.00,,---,0.00,VWS V14.01,2013-03-02 23:08:00,
2013-03-02 18:13:00,32.8,19.7,29.88,NW,321,9.0,11.0,58,0.00,,---,0.00,VWS V14.01,2013-03-02 23:13:00,
2013-03-02 18:18:00,32.7,19.6,29.88,NNW,342,6.0,10.0,58,0.00,,---,0.00,VWS V14.01,2013-03-02 23:18:00,
2013-03-02 18:23:00,32.7,19.6,29.88,NNW,329,11.0,13.0,58,0.00,,---,0.00,VWS V14.01,2013-03-02 23:23:00,
2013-03-02 18:28:00,32.6,19.5,29.88,NNW,340,6.0,15.0,58,0.00,,---,0.00,VWS V14.01,2013-03-02 23:28:00,
2013-03-02 18:33:00,32.6,19.5,29.88,NW,324,6.0,13.0,58,0.00,,---,0.00,VWS V14.01,2013-03-02 23:33:00,
2013-03-02 18:38:00,32.5,19.8,29.88,NW,321,2.0,9.0,59,0.00,,---,0.00,VWS V14.01,2013-03-02 23:38:00,
2013-03-02 18:43:00,32.5,19.4,29.88,NNW,346,6.0,8.0,58,0.00,,---,0.00,VWS V14.01,2013-03-02 23:43:00,
2013-03-02 18:48:00,32.4,19.7,29.88,NW,320,4.0,8.0,59,0.00,,---,0.00,VWS V14.01,2013-03-02 23:48:00,
2013-03-02 18:53:00,32.4,19.3,29.89,NNW,332,5.0,8.0,58,0.00,,---,0.00,VWS V14.01,2013-03-02 23:53:00,
2013-03-02 18:58:00,32.4,20.1,29.89,NNW,329,2.0,10.0,60,0.00,,---,0.00,VWS V14.01,2013-03-02 23:58:00,
2013-03-02 19:03:00,32.3,19.6,29.89,NNW,339,6.0,11.0,59,0.00,,---,0.00,VWS V14.01,2013-03-03 00:03:00,
2013-03-02 19:08:00,32.3,19.6,29.89,North,355,6.0,11.0,59,0.00,,---,0.00,VWS V14.01,2013-03-03 00:08:00,
2013-03-02 19:13:00,32.3,19.6,29.89,NNW,327,4.0,9.0,59,0.00,,---,0.00,VWS V14.01,2013-03-03 00:13:00,
2013-03-02 19:18:00,32.2,19.1,29.89,NNW,333,4.0,10.0,58,0.00,,---,0.00,VWS V14.01,2013-03-03 00:18:00,
2013-03-02 19:23:00,32.1,19.0,29.89,NNW,333,5.0,10.0,58,0.00,,---,0.00,VWS V14.01,2013-03-03 00:23:00,
2013-03-02 19:28:00,32.1,19.0,29.89,NNW,346,6.0,10.0,58,0.00,,---,0.00,VWS V14.01,2013-03-03 00:28:00,
2013-03-02 19:33:00,32.1,19.0,29.89,NNW,346,6.0,11.0,58,0.00,,---,0.00,VWS V14.01,2013-03-03 00:33:00,
2013-03-02 19:38:00,32.1,19.0,29.89,NNW,343,4.0,10.0,58,0.00,,---,0.00,VWS V14.01,2013-03-03 00:38:00,
2013-03-02 19:43:00,32.1,19.0,29.89,NW,322,4.0,11.0,58,0.00,,---,0.00,VWS V14.01,2013-03-03 00:43:00,
2013-03-02 19:48:00,32.1,19.0,29.89,NNW,333,6.0,14.0,58,0.00,,---,0.00,VWS V14.01,2013-03-03 00:48:00,
2013-03-02 19:53:00,32.1,18.6,29.89,NNW,328,5.0,13.0,57,0.00,,---,0.00,VWS V14.01,2013-03-03 00:53:00,
2013-03-02 19:58:00,32.1,18.6,29.89,NW,317,3.0,10.0,57,0.00,,---,0.00,VWS V14.01,2013-03-03 00:58:00,
2013-03-02 20:03:00,32.1,18.6,29.89,NNW,335,9.0,10.0,57,0.00,,---,0.00,VWS V14.01,2013-03-03 01:03:00,
2013-03-02 20:08:00,32.1,18.6,29.89,NNW,327,4.0,9.0,57,0.00,,---,0.00,VWS V14.01,2013-03-03 01:08:00,
2013-03-02 20:13:00,32.1,18.6,29.89,NW,318,7.0,10.0,57,0.00,,---,0.00,VWS V14.01,2013-03-03 01:13:00,
2013-03-02 20:18:00,32.1,18.6,29.89,NNW,343,4.0,9.0,57,0.00,,---,0.00,VWS V14.01,2013-03-03 01:18:00,
2013-03-02 20:23:00,32.0,18.5,29.89,NNW,347,6.0,16.0,57,0.00,,---,0.00,VWS V14.01,2013-03-03 01:23:00,
2013-03-02 20:28:00,32.0,18.5,29.89,NW,326,1.0,8.0,57,0.00,,---,0.00,VWS V14.01,2013-03-03 01:28:00,
2013-03-02 20:33:00,32.0,18.9,29.90,NW,326,2.0,4.0,58,0.00,,---,0.00,VWS V14.01,2013-03-03 01:33:00,
2013-03-02 20:38:00,31.9,18.4,29.90,NW,325,5.0,7.0,57,0.00,,---,0.00,VWS V14.01,2013-03-03 01:38:00,
2013-03-02 20:43:00,31.9,18.8,29.90,NNW,333,2.0,6.0,58,0.00,,---,0.00,VWS V14.01,2013-03-03 01:43:00,
2013-03-02 20:48:00,31.9,18.8,29.90,NNW,327,2.0,8.0,58,0.00,,---,0.00,VWS V14.01,2013-03-03 01:48:00,
2013-03-02 20:53:00,31.9,19.2,29.90,NNW,343,2.0,8.0,59,0.00,,---,0.00,VWS V14.01,2013-03-03 01:53:00,
2013-03-02 20:58:00,31.9,19.2,29.90,NNW,329,3.0,10.0,59,0.00,,---,0.00,VWS V14.01,2013-03-03 01:58:00,
2013-03-02 21:03:00,31.9,19.2,29.90,NNW,348,7.0,11.0,59,0.00,,---,0.00,VWS V14.01,2013-03-03 02:03:00,
2013-03-02 21:08:00,31.9,19.2,29.90,NNW,344,7.0,10.0,59,0.00,,---,0.00,VWS V14.01,2013-03-03 02:08:00,
2013-03-02 21:13:00,31.9,19.6,29.90,North,360,4.0,8.0,60,0.00,,---,0.00,VWS V14.01,2013-03-03 02:13:00,
2013-03-02 21:18:00,31.8,19.9,29.90,NW,317,3.0,6.0,61,0.00,,---,0.00,VWS V14.01,2013-03-03 02:18:00,
2013-03-02 21:23:00,31.8,19.5,29.90,NNW,346,6.0,12.0,60,0.00,,---,0.00,VWS V14.01,2013-03-03 02:23:00,
2013-03-02 21:28:00,31.8,19.5,29.91,NW,314,4.0,8.0,60,0.00,,---,0.00,VWS V14.01,2013-03-03 02:28:00,
2013-03-02 21:33:00,31.8,19.9,29.91,NNW,329,6.0,10.0,61,0.00,,---,0.00,VWS V14.01,2013-03-03 02:33:00,
2013-03-02 21:38:00,31.8,19.9,29.90,NW,323,5.0,10.0,61,0.00,,---,0.00,VWS V14.01,2013-03-03 02:38:00,
2013-03-02 21:43:00,31.8,20.3,29.90,NW,325,4.0,11.0,62,0.00,,---,0.00,VWS V14.01,2013-03-03 02:43:00,
2013-03-02 21:48:00,31.7,20.2,29.91,NNW,342,5.0,13.0,62,0.00,,---,0.00,VWS V14.01,2013-03-03 02:48:00,
2013-03-02 21:53:00,31.7,20.2,29.91,NNW,343,8.0,11.0,62,0.00,,---,0.00,VWS V14.01,2013-03-03 02:53:00,
2013-03-02 21:58:00,31.7,20.6,29.91,NNW,346,2.0,8.0,63,0.00,,---,0.00,VWS V14.01,2013-03-03 02:58:00,
2013-03-02 22:03:00,31.6,20.8,29.90,NNW,336,4.0,11.0,64,0.00,,---,0.00,VWS V14.01,2013-03-03 03:03:00,
2013-03-02 22:08:00,31.6,20.5,29.90,NNW,332,3.0,8.0,63,0.00,,---,0.00,VWS V14.01,2013-03-03 03:08:00,
2013-03-02 22:13:00,31.5,20.7,29.90,North,355,3.0,7.0,64,0.00,,---,0.00,VWS V14.01,2013-03-03 03:13:00,
2013-03-02 22:18:00,31.4,21.0,29.91,North,351,6.0,6.0,65,0.00,,---,0.00,VWS V14.01,2013-03-03 03:18:00,
2013-03-02 22:23:00,31.3,20.5,29.91,NNW,340,7.0,12.0,64,0.00,,---,0.00,VWS V14.01,2013-03-03 03:23:00,
2013-03-02 22:28:00,31.4,19.9,29.90,NW,325,5.0,11.0,62,0.00,,---,0.00,VWS V14.01,2013-03-03 03:28:00,
2013-03-02 22:33:00,31.5,20.0,29.90,NNW,333,7.0,10.0,62,0.00,,---,0.00,VWS V14.01,2013-03-03 03:33:00,
2013-03-02 22:38:00,31.5,19.2,29.90,NNW,341,6.0,10.0,60,0.00,,---,0.00,VWS V14.01,2013-03-03 03:38:00,
2013-03-02 22:42:00,31.5,19.2,29.90,NW,304,6.0,11.0,60,0.00,,---,0.00,VWS V14.01,2013-03-03 03:42:00,
2013-03-02 22:47:00,31.5,19.2,29.90,NNW,348,5.0,11.0,60,0.00,,---,0.00,VWS V14.01,2013-03-03 03:47:00,
2013-03-02 22:52:00,31.5,19.2,29.90,NNW,348,7.0,10.0,60,0.00,,---,0.00,VWS V14.01,2013-03-03 03:52:00,
2013-03-02 22:57:00,31.5,18.8,29.90,WNW,284,5.0,10.0,59,0.00,,---,0.00,VWS V14.01,2013-03-03 03:57:00,
2013-03-02 23:02:00,31.5,18.8,29.89,NNW,340,4.0,9.0,59,0.00,,---,0.00,VWS V14.01,2013-03-03 04:02:00,
2013-03-02 23:07:00,31.4,18.7,29.90,NNW,329,11.0,12.0,59,0.00,,---,0.00,VWS V14.01,2013-03-03 04:07:00,
2013-03-02 23:12:00,31.5,18.4,29.89,WNW,298,7.0,12.0,58,0.00,,---,0.00,VWS V14.01,2013-03-03 04:12:00,
2013-03-02 23:17:00,31.4,18.4,29.89,WNW,293,2.0,9.0,58,0.00,,---,0.00,VWS V14.01,2013-03-03 04:17:00,
2013-03-02 23:22:00,31.3,18.6,29.89,NW,314,3.0,5.0,59,0.00,,---,0.00,VWS V14.01,2013-03-03 04:22:00,
2013-03-02 23:27:00,31.3,19.0,29.89,NW,316,4.0,6.0,60,0.00,,---,0.00,VWS V14.01,2013-03-03 04:27:00,
2013-03-02 23:32:00,31.2,18.5,29.89,NW,308,1.0,6.0,59,0.00,,---,0.00,VWS V14.01,2013-03-03 04:32:00,
2013-03-02 23:37:00,31.2,18.5,29.89,NW,309,6.0,10.0,59,0.00,,---,0.00,VWS V14.01,2013-03-03 04:37:00,
2013-03-02 23:42:00,31.1,18.5,29.89,NNW,327,2.0,7.0,59,0.00,,---,0.00,VWS V14.01,2013-03-03 04:42:00,
2013-03-02 23:47:00,31.1,19.6,29.89,NW,325,5.0,6.0,62,0.00,,---,0.00,VWS V14.01,2013-03-03 04:47:00,
2013-03-02 23:52:00,31.1,18.9,29.89,NNW,345,5.0,8.0,60,0.00,,---,0.00,VWS V14.01,2013-03-03 04:52:00,
2013-03-02 23:57:00,31.1,18.9,29.89,NNW,333,2.0,8.0,60,0.00,,---,0.00,VWS V14.01,2013-03-03 04:57:00,